sensor_id;sensor_type;location;lat;lon;timestamp;pressure;altitude;pressure_sealevel;temperature;humidity
25560;BME280;13450;49.374;8.584;2022-07-19T00:00:19;100764.44;;;22.27;39.26
25560;BME280;13450;49.374;8.584;2022-07-19T00:02:50;100767.06;;;22.17;41.13
25560;BME280;13450;49.374;8.584;2022-07-19T00:05:15;100767.00;;;22.12;41.14
25560;BME280;13450;49.374;8.584;2022-07-19T00:07:41;100759.03;;;22.05;42.12
25560;BME280;13450;49.374;8.584;2022-07-19T00:10:08;100765.22;;;22.00;42.03
25560;BME280;13450;49.374;8.584;2022-07-19T00:12:37;100764.91;;;21.97;40.89
25560;BME280;13450;49.374;8.584;2022-07-19T00:15:07;100766.25;;;21.94;42.55
25560;BME280;13450;49.374;8.584;2022-07-19T00:17:33;100771.13;;;21.92;43.73
25560;BME280;13450;49.374;8.584;2022-07-19T00:19:59;100768.38;;;21.92;43.69
25560;BME280;13450;49.374;8.584;2022-07-19T00:22:26;100772.19;;;21.91;42.75
25560;BME280;13450;49.374;8.584;2022-07-19T00:24:51;100771.06;;;21.87;43.82
25560;BME280;13450;49.374;8.584;2022-07-19T00:27:17;100771.91;;;21.70;43.88
25560;BME280;13450;49.374;8.584;2022-07-19T00:29:42;100776.06;;;21.55;43.96
25560;BME280;13450;49.374;8.584;2022-07-19T00:32:10;100769.41;;;21.46;44.43
25560;BME280;13450;49.374;8.584;2022-07-19T00:34:35;100764.22;;;21.45;45.21
25560;BME280;13450;49.374;8.584;2022-07-19T00:37:01;100769.34;;;21.41;44.97
25560;BME280;13450;49.374;8.584;2022-07-19T00:39:26;100773.13;;;21.40;44.51
25560;BME280;13450;49.374;8.584;2022-07-19T00:41:55;100761.66;;;21.38;45.35
25560;BME280;13450;49.374;8.584;2022-07-19T00:44:21;100770.28;;;21.29;43.71
25560;BME280;13450;49.374;8.584;2022-07-19T00:46:47;100769.19;;;21.30;46.20
25560;BME280;13450;49.374;8.584;2022-07-19T00:49:13;100769.84;;;21.21;44.84
25560;BME280;13450;49.374;8.584;2022-07-19T00:51:39;100768.06;;;21.09;44.48
25560;BME280;13450;49.374;8.584;2022-07-19T00:54:08;100776.13;;;21.04;44.81
25560;BME280;13450;49.374;8.584;2022-07-19T00:56:37;100774.63;;;20.96;45.16
25560;BME280;13450;49.374;8.584;2022-07-19T00:59:06;100774.81;;;20.89;44.59
25560;BME280;13450;49.374;8.584;2022-07-19T01:01:32;100772.69;;;20.80;45.21
25560;BME280;13450;49.374;8.584;2022-07-19T01:03:58;100772.06;;;20.72;46.43
25560;BME280;13450;49.374;8.584;2022-07-19T01:06:23;100781.16;;;20.66;46.66
25560;BME280;13450;49.374;8.584;2022-07-19T01:08:49;100776.72;;;20.60;46.25
25560;BME280;13450;49.374;8.584;2022-07-19T01:11:14;100781.00;;;20.56;43.31
25560;BME280;13450;49.374;8.584;2022-07-19T01:13:40;100775.38;;;20.45;48.64
25560;BME280;13450;49.374;8.584;2022-07-19T01:16:05;100776.09;;;20.41;50.24
25560;BME280;13450;49.374;8.584;2022-07-19T01:18:30;100773.06;;;20.37;47.66
25560;BME280;13450;49.374;8.584;2022-07-19T01:20:57;100776.84;;;20.36;46.76
25560;BME280;13450;49.374;8.584;2022-07-19T01:23:23;100770.91;;;20.39;50.61
25560;BME280;13450;49.374;8.584;2022-07-19T01:25:51;100769.75;;;20.35;47.43
25560;BME280;13450;49.374;8.584;2022-07-19T01:28:16;100780.19;;;20.26;51.37
25560;BME280;13450;49.374;8.584;2022-07-19T01:30:41;100777.28;;;20.16;49.04
25560;BME280;13450;49.374;8.584;2022-07-19T01:33:07;100776.09;;;20.11;48.49
25560;BME280;13450;49.374;8.584;2022-07-19T01:35:35;100784.34;;;20.17;48.94
25560;BME280;13450;49.374;8.584;2022-07-19T01:38:00;100785.19;;;20.17;47.73
25560;BME280;13450;49.374;8.584;2022-07-19T01:40:25;100776.19;;;20.17;54.63
25560;BME280;13450;49.374;8.584;2022-07-19T01:42:51;100784.94;;;20.07;53.69
25560;BME280;13450;49.374;8.584;2022-07-19T01:45:17;100777.66;;;19.95;50.53
25560;BME280;13450;49.374;8.584;2022-07-19T01:47:44;100778.59;;;19.89;55.46
25560;BME280;13450;49.374;8.584;2022-07-19T01:50:14;100787.00;;;19.88;50.52
25560;BME280;13450;49.374;8.584;2022-07-19T01:52:45;100787.34;;;19.91;48.26
25560;BME280;13450;49.374;8.584;2022-07-19T01:55:10;100785.19;;;19.93;54.12
25560;BME280;13450;49.374;8.584;2022-07-19T01:57:36;100782.00;;;19.96;53.48
25560;BME280;13450;49.374;8.584;2022-07-19T02:00:05;100779.28;;;19.96;52.66
25560;BME280;13450;49.374;8.584;2022-07-19T02:02:33;100783.09;;;19.95;53.44
25560;BME280;13450;49.374;8.584;2022-07-19T02:04:58;100777.66;;;19.95;54.60
25560;BME280;13450;49.374;8.584;2022-07-19T02:07:23;100774.47;;;19.98;58.11
25560;BME280;13450;49.374;8.584;2022-07-19T02:09:48;100770.19;;;20.03;53.01
25560;BME280;13450;49.374;8.584;2022-07-19T02:12:14;100774.59;;;20.04;57.90
25560;BME280;13450;49.374;8.584;2022-07-19T02:14:39;100777.31;;;20.04;54.13
25560;BME280;13450;49.374;8.584;2022-07-19T02:17:04;100776.25;;;20.05;51.76
25560;BME280;13450;49.374;8.584;2022-07-19T02:19:30;100782.13;;;20.02;54.65
25560;BME280;13450;49.374;8.584;2022-07-19T02:21:56;100777.19;;;19.98;57.03
25560;BME280;13450;49.374;8.584;2022-07-19T02:24:21;100766.78;;;19.95;57.84
25560;BME280;13450;49.374;8.584;2022-07-19T02:26:46;100769.41;;;19.90;55.00
25560;BME280;13450;49.374;8.584;2022-07-19T02:29:14;100764.34;;;19.82;55.37
25560;BME280;13450;49.374;8.584;2022-07-19T02:31:42;100763.75;;;19.80;54.96
25560;BME280;13450;49.374;8.584;2022-07-19T02:34:09;100759.47;;;19.84;55.41
25560;BME280;13450;49.374;8.584;2022-07-19T02:36:36;100750.66;;;19.77;55.21
25560;BME280;13450;49.374;8.584;2022-07-19T02:39:02;100756.66;;;19.79;54.86
25560;BME280;13450;49.374;8.584;2022-07-19T02:41:27;100754.69;;;19.74;54.68
25560;BME280;13450;49.374;8.584;2022-07-19T02:43:53;100758.22;;;19.74;56.78
25560;BME280;13450;49.374;8.584;2022-07-19T02:46:18;100749.25;;;19.74;56.35
25560;BME280;13450;49.374;8.584;2022-07-19T02:48:45;100753.38;;;19.77;59.45
25560;BME280;13450;49.374;8.584;2022-07-19T02:51:11;100754.31;;;19.70;57.40
25560;BME280;13450;49.374;8.584;2022-07-19T02:53:37;100755.97;;;19.71;56.30
25560;BME280;13450;49.374;8.584;2022-07-19T02:56:02;100760.47;;;19.66;59.69
25560;BME280;13450;49.374;8.584;2022-07-19T02:58:30;100749.25;;;19.62;54.29
25560;BME280;13450;49.374;8.584;2022-07-19T03:00:55;100747.50;;;19.56;55.58
25560;BME280;13450;49.374;8.584;2022-07-19T03:03:20;100739.34;;;19.56;59.35
25560;BME280;13450;49.374;8.584;2022-07-19T03:06:04;100743.72;;;19.57;56.06
25560;BME280;13450;49.374;8.584;2022-07-19T03:08:29;100735.69;;;19.62;57.40
25560;BME280;13450;49.374;8.584;2022-07-19T03:10:55;100743.13;;;19.67;58.51
25560;BME280;13450;49.374;8.584;2022-07-19T03:13:20;100748.22;;;19.63;56.45
25560;BME280;13450;49.374;8.584;2022-07-19T03:15:47;100742.91;;;19.56;55.55
25560;BME280;13450;49.374;8.584;2022-07-19T03:18:12;100739.25;;;19.51;57.22
25560;BME280;13450;49.374;8.584;2022-07-19T03:20:38;100739.72;;;19.47;57.83
25560;BME280;13450;49.374;8.584;2022-07-19T03:23:03;100734.75;;;19.44;54.94
25560;BME280;13450;49.374;8.584;2022-07-19T03:25:28;100742.31;;;19.42;58.08
25560;BME280;13450;49.374;8.584;2022-07-19T03:27:53;100748.44;;;19.38;55.91
25560;BME280;13450;49.374;8.584;2022-07-19T03:30:19;100752.47;;;19.35;56.94
25560;BME280;13450;49.374;8.584;2022-07-19T03:32:46;100765.44;;;19.33;58.51
25560;BME280;13450;49.374;8.584;2022-07-19T03:35:11;100766.53;;;19.20;59.25
25560;BME280;13450;49.374;8.584;2022-07-19T03:37:36;100768.47;;;19.01;61.19
25560;BME280;13450;49.374;8.584;2022-07-19T03:40:03;100759.94;;;18.85;61.60
25560;BME280;13450;49.374;8.584;2022-07-19T03:42:31;100771.13;;;18.77;64.95
25560;BME280;13450;49.374;8.584;2022-07-19T03:44:57;100767.09;;;18.67;58.11
25560;BME280;13450;49.374;8.584;2022-07-19T03:47:22;100765.09;;;18.63;57.44
25560;BME280;13450;49.374;8.584;2022-07-19T03:49:47;100761.53;;;18.62;63.66
25560;BME280;13450;49.374;8.584;2022-07-19T03:52:13;100760.84;;;18.67;61.60
25560;BME280;13450;49.374;8.584;2022-07-19T03:54:39;100763.09;;;18.70;57.62
25560;BME280;13450;49.374;8.584;2022-07-19T03:57:04;100766.75;;;18.76;57.97
25560;BME280;13450;49.374;8.584;2022-07-19T03:59:31;100760.78;;;18.86;57.91
25560;BME280;13450;49.374;8.584;2022-07-19T04:01:57;100763.25;;;18.87;57.83
25560;BME280;13450;49.374;8.584;2022-07-19T04:04:24;100762.31;;;18.93;61.65
25560;BME280;13450;49.374;8.584;2022-07-19T04:06:49;100761.03;;;18.96;57.05
25560;BME280;13450;49.374;8.584;2022-07-19T04:09:15;100764.91;;;19.00;53.33
25560;BME280;13450;49.374;8.584;2022-07-19T04:11:40;100763.84;;;19.01;58.97
25560;BME280;13450;49.374;8.584;2022-07-19T04:14:08;100773.28;;;18.99;58.90
25560;BME280;13450;49.374;8.584;2022-07-19T04:16:34;100768.19;;;18.90;63.38
25560;BME280;13450;49.374;8.584;2022-07-19T04:18:59;100774.56;;;18.84;63.82
25560;BME280;13450;49.374;8.584;2022-07-19T04:21:24;100768.41;;;18.77;64.11
25560;BME280;13450;49.374;8.584;2022-07-19T04:23:50;100772.19;;;18.76;62.10
25560;BME280;13450;49.374;8.584;2022-07-19T04:26:17;100775.72;;;18.76;61.90
25560;BME280;13450;49.374;8.584;2022-07-19T04:28:43;100784.81;;;18.82;65.70
25560;BME280;13450;49.374;8.584;2022-07-19T04:31:09;100781.72;;;18.78;60.29
25560;BME280;13450;49.374;8.584;2022-07-19T04:33:34;100776.22;;;18.85;63.76
25560;BME280;13450;49.374;8.584;2022-07-19T04:35:59;100783.75;;;18.83;64.00
25560;BME280;13450;49.374;8.584;2022-07-19T04:38:24;100775.28;;;18.91;62.99
25560;BME280;13450;49.374;8.584;2022-07-19T04:40:50;100774.81;;;18.94;60.79
25560;BME280;13450;49.374;8.584;2022-07-19T04:43:16;100768.25;;;19.02;65.10
25560;BME280;13450;49.374;8.584;2022-07-19T04:45:44;100784.44;;;19.09;57.61
25560;BME280;13450;49.374;8.584;2022-07-19T04:48:12;100774.66;;;19.20;63.98
25560;BME280;13450;49.374;8.584;2022-07-19T04:50:40;100779.34;;;19.25;61.35
25560;BME280;13450;49.374;8.584;2022-07-19T04:53:09;100778.78;;;19.34;59.16
25560;BME280;13450;49.374;8.584;2022-07-19T04:55:38;100784.44;;;19.45;62.86
25560;BME280;13450;49.374;8.584;2022-07-19T04:58:03;100782.22;;;19.54;60.32
25560;BME280;13450;49.374;8.584;2022-07-19T05:00:29;100774.28;;;19.64;60.14
25560;BME280;13450;49.374;8.584;2022-07-19T05:02:55;100781.47;;;19.70;57.70
25560;BME280;13450;49.374;8.584;2022-07-19T05:05:21;100776.28;;;19.81;58.97
25560;BME280;13450;49.374;8.584;2022-07-19T05:07:47;100776.94;;;19.88;60.40
25560;BME280;13450;49.374;8.584;2022-07-19T05:10:12;100780.84;;;19.92;59.65
25560;BME280;13450;49.374;8.584;2022-07-19T05:12:39;100775.06;;;20.01;58.49
25560;BME280;13450;49.374;8.584;2022-07-19T05:15:05;100779.06;;;20.10;61.07
25560;BME280;13450;49.374;8.584;2022-07-19T05:17:31;100783.63;;;20.21;57.03
25560;BME280;13450;49.374;8.584;2022-07-19T05:19:57;100784.06;;;20.30;60.31
25560;BME280;13450;49.374;8.584;2022-07-19T05:22:24;100781.53;;;20.41;57.29
25560;BME280;13450;49.374;8.584;2022-07-19T05:24:51;100785.25;;;20.51;57.29
25560;BME280;13450;49.374;8.584;2022-07-19T05:27:17;100783.22;;;20.59;57.23
25560;BME280;13450;49.374;8.584;2022-07-19T05:29:42;100780.38;;;20.65;55.35
25560;BME280;13450;49.374;8.584;2022-07-19T05:32:08;100774.75;;;20.72;53.77
25560;BME280;13450;49.374;8.584;2022-07-19T05:34:33;100767.84;;;20.82;54.30
25560;BME280;13450;49.374;8.584;2022-07-19T05:36:58;100768.03;;;20.92;57.22
25560;BME280;13450;49.374;8.584;2022-07-19T05:39:24;100773.69;;;21.02;55.16
25560;BME280;13450;49.374;8.584;2022-07-19T05:41:49;100777.09;;;21.15;55.74
25560;BME280;13450;49.374;8.584;2022-07-19T05:44:14;100771.00;;;21.25;56.09
25560;BME280;13450;49.374;8.584;2022-07-19T05:46:44;100775.25;;;21.38;54.31
25560;BME280;13450;49.374;8.584;2022-07-19T05:49:11;100765.69;;;21.52;56.55
25560;BME280;13450;49.374;8.584;2022-07-19T05:51:37;100772.06;;;21.63;53.09
25560;BME280;13450;49.374;8.584;2022-07-19T05:54:06;100773.06;;;21.74;50.88
25560;BME280;13450;49.374;8.584;2022-07-19T05:56:31;100776.50;;;21.87;50.41
25560;BME280;13450;49.374;8.584;2022-07-19T05:58:57;100769.88;;;22.00;52.79
25560;BME280;13450;49.374;8.584;2022-07-19T06:01:23;100770.78;;;22.11;51.90
25560;BME280;13450;49.374;8.584;2022-07-19T06:03:52;100770.91;;;22.21;52.65
25560;BME280;13450;49.374;8.584;2022-07-19T06:06:19;100777.56;;;22.30;52.41
25560;BME280;13450;49.374;8.584;2022-07-19T06:08:46;100784.69;;;22.37;56.31
25560;BME280;13450;49.374;8.584;2022-07-19T06:11:12;100777.16;;;22.44;53.47
25560;BME280;13450;49.374;8.584;2022-07-19T06:13:40;100775.13;;;22.56;52.77
25560;BME280;13450;49.374;8.584;2022-07-19T06:16:06;100777.09;;;22.66;53.11
25560;BME280;13450;49.374;8.584;2022-07-19T06:18:32;100772.03;;;22.75;51.73
25560;BME280;13450;49.374;8.584;2022-07-19T06:21:07;100774.31;;;22.89;52.33
25560;BME280;13450;49.374;8.584;2022-07-19T06:23:35;100767.84;;;23.00;49.46
25560;BME280;13450;49.374;8.584;2022-07-19T06:26:02;100768.19;;;23.09;49.61
25560;BME280;13450;49.374;8.584;2022-07-19T06:28:28;100780.00;;;23.20;48.94
25560;BME280;13450;49.374;8.584;2022-07-19T06:30:53;100773.50;;;23.26;49.24
25560;BME280;13450;49.374;8.584;2022-07-19T06:33:19;100774.66;;;23.35;49.22
25560;BME280;13450;49.374;8.584;2022-07-19T06:35:44;100778.28;;;23.46;48.41
25560;BME280;13450;49.374;8.584;2022-07-19T06:38:10;100784.63;;;23.57;47.60
25560;BME280;13450;49.374;8.584;2022-07-19T06:40:38;100777.84;;;23.70;47.06
25560;BME280;13450;49.374;8.584;2022-07-19T06:43:04;100781.78;;;23.85;45.16
25560;BME280;13450;49.374;8.584;2022-07-19T06:45:29;100782.63;;;23.96;43.62
25560;BME280;13450;49.374;8.584;2022-07-19T06:47:54;100780.47;;;24.08;43.49
25560;BME280;13450;49.374;8.584;2022-07-19T06:50:20;100779.19;;;24.21;43.25
25560;BME280;13450;49.374;8.584;2022-07-19T06:52:48;100788.53;;;24.36;43.93
25560;BME280;13450;49.374;8.584;2022-07-19T06:55:17;100778.13;;;24.43;42.44
25560;BME280;13450;49.374;8.584;2022-07-19T06:57:42;100777.31;;;24.53;41.43
25560;BME280;13450;49.374;8.584;2022-07-19T07:00:08;100791.56;;;24.65;41.27
25560;BME280;13450;49.374;8.584;2022-07-19T07:02:38;100785.00;;;24.77;40.77
25560;BME280;13450;49.374;8.584;2022-07-19T07:05:07;100785.59;;;24.89;40.80
25560;BME280;13450;49.374;8.584;2022-07-19T07:07:37;100788.03;;;25.01;40.09
25560;BME280;13450;49.374;8.584;2022-07-19T07:10:04;100794.06;;;25.14;40.20
25560;BME280;13450;49.374;8.584;2022-07-19T07:12:31;100788.88;;;25.23;40.25
25560;BME280;13450;49.374;8.584;2022-07-19T07:14:59;100789.38;;;25.35;39.76
25560;BME280;13450;49.374;8.584;2022-07-19T07:17:24;100789.91;;;25.47;39.22
25560;BME280;13450;49.374;8.584;2022-07-19T07:19:52;100786.06;;;25.59;38.71
25560;BME280;13450;49.374;8.584;2022-07-19T07:22:18;100783.81;;;25.71;39.22
25560;BME280;13450;49.374;8.584;2022-07-19T07:24:45;100784.88;;;25.86;38.65
25560;BME280;13450;49.374;8.584;2022-07-19T07:27:11;100779.31;;;26.02;38.20
25560;BME280;13450;49.374;8.584;2022-07-19T07:29:38;100777.91;;;26.15;37.75
25560;BME280;13450;49.374;8.584;2022-07-19T07:32:04;100784.69;;;26.28;37.32
25560;BME280;13450;49.374;8.584;2022-07-19T07:34:29;100778.59;;;26.41;36.81
25560;BME280;13450;49.374;8.584;2022-07-19T07:36:57;100780.66;;;26.60;36.34
25560;BME280;13450;49.374;8.584;2022-07-19T07:39:22;100776.09;;;26.80;35.37
25560;BME280;13450;49.374;8.584;2022-07-19T07:41:48;100780.66;;;26.95;34.41
25560;BME280;13450;49.374;8.584;2022-07-19T07:44:13;100772.03;;;27.12;34.33
25560;BME280;13450;49.374;8.584;2022-07-19T07:46:39;100771.84;;;27.27;34.45
25560;BME280;13450;49.374;8.584;2022-07-19T07:49:05;100782.16;;;27.41;34.30
25560;BME280;13450;49.374;8.584;2022-07-19T07:51:30;100775.13;;;27.54;34.15
25560;BME280;13450;49.374;8.584;2022-07-19T07:53:58;100774.81;;;27.61;33.87
25560;BME280;13450;49.374;8.584;2022-07-19T07:56:24;100763.09;;;27.74;34.01
25560;BME280;13450;49.374;8.584;2022-07-19T07:58:50;100775.31;;;27.87;32.76
25560;BME280;13450;49.374;8.584;2022-07-19T08:01:15;100767.16;;;28.01;31.69
25560;BME280;13450;49.374;8.584;2022-07-19T08:03:41;100762.56;;;28.16;31.42
25560;BME280;13450;49.374;8.584;2022-07-19T08:06:08;100769.56;;;28.27;31.60
25560;BME280;13450;49.374;8.584;2022-07-19T08:08:33;100769.94;;;28.40;31.29
25560;BME280;13450;49.374;8.584;2022-07-19T08:10:59;100765.59;;;28.53;30.42
25560;BME280;13450;49.374;8.584;2022-07-19T08:13:24;100761.28;;;28.66;30.60
25560;BME280;13450;49.374;8.584;2022-07-19T08:15:50;100756.03;;;28.83;30.02
25560;BME280;13450;49.374;8.584;2022-07-19T08:18:16;100758.03;;;28.97;30.83
25560;BME280;13450;49.374;8.584;2022-07-19T08:20:41;100745.22;;;29.06;30.44
25560;BME280;13450;49.374;8.584;2022-07-19T08:23:09;100753.78;;;29.19;29.99
25560;BME280;13450;49.374;8.584;2022-07-19T08:25:36;100755.31;;;29.25;30.88
25560;BME280;13450;49.374;8.584;2022-07-19T08:28:04;100753.38;;;29.26;31.16
25560;BME280;13450;49.374;8.584;2022-07-19T08:30:30;100752.47;;;29.30;31.35
25560;BME280;13450;49.374;8.584;2022-07-19T08:32:56;100753.50;;;29.34;30.58
25560;BME280;13450;49.374;8.584;2022-07-19T08:35:21;100748.38;;;29.42;28.83
25560;BME280;13450;49.374;8.584;2022-07-19T08:37:46;100749.91;;;29.48;28.07
25560;BME280;13450;49.374;8.584;2022-07-19T08:40:12;100748.72;;;29.54;29.05
25560;BME280;13450;49.374;8.584;2022-07-19T08:42:40;100746.88;;;29.63;29.23
25560;BME280;13450;49.374;8.584;2022-07-19T08:45:10;100740.50;;;29.77;28.70
25560;BME280;13450;49.374;8.584;2022-07-19T08:47:37;100745.19;;;29.91;29.01
25560;BME280;13450;49.374;8.584;2022-07-19T08:50:10;100746.72;;;29.97;28.89
25560;BME280;13450;49.374;8.584;2022-07-19T08:52:37;100747.63;;;30.06;28.28
25560;BME280;13450;49.374;8.584;2022-07-19T08:55:03;100739.44;;;30.15;28.17
25560;BME280;13450;49.374;8.584;2022-07-19T08:57:29;100743.59;;;30.26;26.99
25560;BME280;13450;49.374;8.584;2022-07-19T09:00:13;100743.03;;;30.38;28.18
25560;BME280;13450;49.374;8.584;2022-07-19T09:02:41;100745.84;;;30.47;27.66
25560;BME280;13450;49.374;8.584;2022-07-19T09:05:15;100744.41;;;30.50;26.84
25560;BME280;13450;49.374;8.584;2022-07-19T09:07:41;100742.78;;;30.49;27.96
25560;BME280;13450;49.374;8.584;2022-07-19T09:10:22;100734.06;;;30.56;27.29
25560;BME280;13450;49.374;8.584;2022-07-19T09:13:12;100735.75;;;30.65;26.75
25560;BME280;13450;49.374;8.584;2022-07-19T09:15:47;100732.25;;;30.74;26.90
25560;BME280;13450;49.374;8.584;2022-07-19T09:18:30;100734.44;;;30.86;27.84
25560;BME280;13450;49.374;8.584;2022-07-19T09:20:58;100733.22;;;31.01;27.61
25560;BME280;13450;49.374;8.584;2022-07-19T09:23:25;100737.81;;;31.14;27.33
25560;BME280;13450;49.374;8.584;2022-07-19T09:25:56;100728.41;;;31.24;27.27
25560;BME280;13450;49.374;8.584;2022-07-19T09:28:23;100728.66;;;31.37;26.92
25560;BME280;13450;49.374;8.584;2022-07-19T09:30:50;100737.97;;;31.50;27.50
25560;BME280;13450;49.374;8.584;2022-07-19T09:33:21;100728.38;;;31.56;26.86
25560;BME280;13450;49.374;8.584;2022-07-19T09:35:51;100728.25;;;31.61;26.86
25560;BME280;13450;49.374;8.584;2022-07-19T09:38:32;100722.53;;;31.66;26.80
25560;BME280;13450;49.374;8.584;2022-07-19T09:46:33;100720.66;;;31.93;26.62
25560;BME280;13450;49.374;8.584;2022-07-19T09:49:14;100717.41;;;32.09;26.32
25560;BME280;13450;49.374;8.584;2022-07-19T09:51:46;100708.63;;;32.25;25.29
25560;BME280;13450;49.374;8.584;2022-07-19T09:54:13;100709.91;;;32.36;26.00
25560;BME280;13450;49.374;8.584;2022-07-19T09:56:41;100706.66;;;32.52;25.72
25560;BME280;13450;49.374;8.584;2022-07-19T09:59:07;100702.88;;;32.65;25.37
25560;BME280;13450;49.374;8.584;2022-07-19T10:01:34;100707.44;;;32.70;23.89
25560;BME280;13450;49.374;8.584;2022-07-19T10:04:16;100710.81;;;32.75;22.68
25560;BME280;13450;49.374;8.584;2022-07-19T10:06:43;100707.88;;;32.81;23.92
25560;BME280;13450;49.374;8.584;2022-07-19T10:09:10;100708.34;;;32.92;24.50
25560;BME280;13450;49.374;8.584;2022-07-19T10:11:37;100706.69;;;32.99;23.45
25560;BME280;13450;49.374;8.584;2022-07-19T10:14:04;100710.44;;;33.04;22.79
25560;BME280;13450;49.374;8.584;2022-07-19T10:19:44;100705.94;;;33.20;22.70
25560;BME280;13450;49.374;8.584;2022-07-19T10:22:13;100694.69;;;33.25;22.49
25560;BME280;13450;49.374;8.584;2022-07-19T10:32:30;100684.41;;;33.47;22.35
25560;BME280;13450;49.374;8.584;2022-07-19T10:35:18;100678.03;;;33.56;22.24
25560;BME280;13450;49.374;8.584;2022-07-19T10:37:46;100672.56;;;33.68;22.20
25560;BME280;13450;49.374;8.584;2022-07-19T10:40:11;100674.06;;;33.87;22.87
25560;BME280;13450;49.374;8.584;2022-07-19T10:43:15;100668.78;;;33.94;21.89
25560;BME280;13450;49.374;8.584;2022-07-19T10:48:45;100667.31;;;34.30;21.92
25560;BME280;13450;49.374;8.584;2022-07-19T10:51:27;100661.09;;;34.46;21.79
25560;BME280;13450;49.374;8.584;2022-07-19T10:53:54;100662.25;;;34.45;22.08
25560;BME280;13450;49.374;8.584;2022-07-19T10:56:25;100670.13;;;34.55;22.41
25560;BME280;13450;49.374;8.584;2022-07-19T10:58:53;100649.72;;;34.73;22.02
25560;BME280;13450;49.374;8.584;2022-07-19T11:01:20;100646.94;;;34.98;21.63
25560;BME280;13450;49.374;8.584;2022-07-19T11:03:46;100635.03;;;35.22;20.99
25560;BME280;13450;49.374;8.584;2022-07-19T11:06:24;100639.06;;;35.25;20.13
25560;BME280;13450;49.374;8.584;2022-07-19T11:08:55;100637.97;;;35.42;21.08
25560;BME280;13450;49.374;8.584;2022-07-19T11:11:21;100632.69;;;35.78;20.02
25560;BME280;13450;49.374;8.584;2022-07-19T11:13:51;100638.25;;;36.06;19.94
25560;BME280;13450;49.374;8.584;2022-07-19T11:16:20;100628.38;;;36.54;20.35
25560;BME280;13450;49.374;8.584;2022-07-19T11:18:46;100627.38;;;37.30;20.60
25560;BME280;13450;49.374;8.584;2022-07-19T11:21:14;100622.44;;;37.79;17.87
25560;BME280;13450;49.374;8.584;2022-07-19T11:23:43;100607.31;;;38.97;17.18
25560;BME280;13450;49.374;8.584;2022-07-19T11:26:14;100605.84;;;40.03;17.80
25560;BME280;13450;49.374;8.584;2022-07-19T11:28:43;100597.41;;;42.04;15.57
25560;BME280;13450;49.374;8.584;2022-07-19T11:31:17;100593.81;;;42.51;14.17
25560;BME280;13450;49.374;8.584;2022-07-19T11:33:44;100587.16;;;43.37;13.67
25560;BME280;13450;49.374;8.584;2022-07-19T11:36:10;100584.81;;;44.00;13.69
25560;BME280;13450;49.374;8.584;2022-07-19T11:38:50;100580.75;;;44.92;13.60
25560;BME280;13450;49.374;8.584;2022-07-19T11:41:27;100580.84;;;45.20;12.97
25560;BME280;13450;49.374;8.584;2022-07-19T11:44:01;100578.19;;;46.67;11.83
25560;BME280;13450;49.374;8.584;2022-07-19T11:46:32;100578.75;;;47.19;13.12
25560;BME280;13450;49.374;8.584;2022-07-19T11:49:01;100564.19;;;47.91;12.02
25560;BME280;13450;49.374;8.584;2022-07-19T11:51:27;100566.31;;;47.70;10.99
25560;BME280;13450;49.374;8.584;2022-07-19T11:53:54;100556.34;;;48.75;10.73
25560;BME280;13450;49.374;8.584;2022-07-19T11:56:22;100556.59;;;48.93;11.16
25560;BME280;13450;49.374;8.584;2022-07-19T11:58:49;100555.44;;;49.33;10.03
25560;BME280;13450;49.374;8.584;2022-07-19T12:01:22;100534.97;;;49.13;10.10
25560;BME280;13450;49.374;8.584;2022-07-19T12:03:56;100544.06;;;49.72;10.62
25560;BME280;13450;49.374;8.584;2022-07-19T12:06:34;100541.44;;;49.26;10.53
25560;BME280;13450;49.374;8.584;2022-07-19T12:09:09;100540.09;;;49.31;10.02
25560;BME280;13450;49.374;8.584;2022-07-19T12:11:49;100530.69;;;49.47;9.90
25560;BME280;13450;49.374;8.584;2022-07-19T12:14:25;100530.56;;;49.38;10.28
25560;BME280;13450;49.374;8.584;2022-07-19T12:19:38;100522.63;;;49.45;9.90
25560;BME280;13450;49.374;8.584;2022-07-19T12:22:05;100526.09;;;49.89;9.32
25560;BME280;13450;49.374;8.584;2022-07-19T12:24:32;100527.59;;;50.16;9.55
25560;BME280;13450;49.374;8.584;2022-07-19T12:27:07;100528.53;;;50.12;9.45
25560;BME280;13450;49.374;8.584;2022-07-19T12:29:46;100512.06;;;49.46;10.11
25560;BME280;13450;49.374;8.584;2022-07-19T12:32:28;100506.00;;;48.92;9.37
25560;BME280;13450;49.374;8.584;2022-07-19T12:35:00;100509.31;;;49.03;10.29
25560;BME280;13450;49.374;8.584;2022-07-19T12:37:30;100503.44;;;49.37;10.08
25560;BME280;13450;49.374;8.584;2022-07-19T12:42:21;100489.88;;;49.80;10.32
25560;BME280;13450;49.374;8.584;2022-07-19T12:44:47;100481.59;;;49.59;9.85
25560;BME280;13450;49.374;8.584;2022-07-19T12:47:15;100483.41;;;49.53;10.12
25560;BME280;13450;49.374;8.584;2022-07-19T12:49:43;100490.44;;;49.62;9.59
25560;BME280;13450;49.374;8.584;2022-07-19T12:52:08;100473.28;;;50.01;9.30
25560;BME280;13450;49.374;8.584;2022-07-19T12:54:34;100477.31;;;51.11;9.52
25560;BME280;13450;49.374;8.584;2022-07-19T12:56:59;100482.09;;;51.14;9.60
25560;BME280;13450;49.374;8.584;2022-07-19T12:59:24;100472.34;;;51.44;8.79
25560;BME280;13450;49.374;8.584;2022-07-19T13:02:13;100476.06;;;51.12;8.84
25560;BME280;13450;49.374;8.584;2022-07-19T13:04:41;100477.78;;;50.24;8.81
25560;BME280;13450;49.374;8.584;2022-07-19T13:07:08;100478.81;;;51.25;8.64
25560;BME280;13450;49.374;8.584;2022-07-19T13:09:35;100473.63;;;50.70;8.80
25560;BME280;13450;49.374;8.584;2022-07-19T13:12:02;100462.91;;;51.56;8.77
25560;BME280;13450;49.374;8.584;2022-07-19T13:14:28;100467.50;;;51.63;8.59
25560;BME280;13450;49.374;8.584;2022-07-19T13:16:56;100463.47;;;51.23;8.74